createdAt,value
2022-09-20T00:01:10.513Z,1.85
2022-09-20T00:03:39.856Z,1.80
2022-09-20T00:06:09.864Z,1.90
2022-09-20T00:08:38.632Z,2.25
2022-09-20T00:11:07.760Z,2.40
2022-09-20T00:13:37.867Z,2.00
2022-09-20T00:16:09.023Z,2.38
2022-09-20T00:18:37.023Z,1.77
2022-09-20T00:21:05.116Z,2.33
2022-09-20T00:23:33.705Z,1.92
2022-09-20T00:26:02.586Z,2.28
2022-09-20T00:28:30.863Z,2.13
2022-09-20T00:30:58.562Z,2.40
2022-09-20T00:33:48.131Z,2.55
2022-09-20T00:36:14.870Z,1.85
2022-09-20T00:38:42.837Z,2.25
2022-09-20T00:41:11.149Z,2.28
2022-09-20T00:43:40.498Z,1.98
2022-09-20T00:46:20.570Z,2.50
2022-09-20T00:48:50.800Z,1.98
2022-09-20T00:51:24.684Z,2.38
2022-09-20T00:53:52.924Z,2.30
2022-09-20T00:56:25.661Z,2.33
2022-09-20T00:59:02.772Z,2.50
2022-09-20T01:01:30.481Z,2.58
2022-09-20T01:04:00.703Z,2.30
2022-09-20T01:06:28.782Z,2.58
2022-09-20T01:08:58.978Z,2.30
2022-09-20T01:11:27.321Z,3.50
2022-09-20T01:13:54.998Z,2.83
2022-09-20T01:16:23.616Z,2.53
2022-09-20T01:18:52.189Z,2.47
2022-09-20T01:21:21.810Z,2.42
2022-09-20T01:23:57.132Z,2.78
2022-09-20T01:27:05.093Z,2.78
2022-09-20T01:29:48.907Z,2.63
2022-09-20T01:32:21.516Z,2.78
2022-09-20T01:34:54.553Z,2.83
2022-09-20T01:37:26.849Z,2.70
2022-09-20T01:40:01.865Z,3.03
2022-09-20T01:42:34.521Z,2.72
2022-09-20T01:45:12.004Z,2.55
2022-09-20T01:47:47.186Z,2.85
2022-09-20T01:50:25.700Z,2.95
2022-09-20T01:53:25.510Z,3.33
2022-09-20T01:56:09.869Z,2.50
2022-09-20T01:59:23.618Z,3.42
2022-09-20T02:02:14.469Z,2.92
2022-09-20T02:05:02.869Z,3.20
2022-09-20T02:08:02.904Z,2.90
2022-09-20T02:10:48.375Z,3.10
2022-09-20T02:13:29.362Z,3.78
2022-09-20T02:16:21.722Z,3.00
2022-09-20T02:19:20.311Z,3.15
2022-09-20T02:21:59.964Z,3.50
2022-09-20T02:24:30.427Z,4.18
2022-09-20T02:27:08.979Z,3.25
2022-09-20T02:29:45.583Z,3.10
2022-09-20T02:32:35.324Z,2.92
2022-09-20T02:35:15.919Z,3.13
2022-09-20T02:37:58.367Z,2.85
2022-09-20T02:40:40.504Z,2.90
2022-09-20T02:43:15.721Z,2.42
2022-09-20T02:45:49.032Z,2.75
2022-09-20T02:48:22.502Z,2.55
2022-09-20T02:51:00.024Z,3.00
2022-09-20T02:53:38.794Z,2.85
2022-09-20T02:56:15.301Z,2.83
2022-09-20T02:58:52.904Z,3.40
2022-09-20T03:01:32.112Z,3.20
2022-09-20T03:04:09.087Z,3.45
2022-09-20T03:06:43.748Z,3.92
2022-09-20T03:09:19.438Z,2.63
2022-09-20T03:11:56.368Z,2.80
2022-09-20T03:14:29.263Z,2.50
2022-09-20T03:17:06.823Z,3.15
2022-09-20T03:19:47.757Z,3.25
2022-09-20T03:22:27.475Z,3.20
2022-09-20T03:25:07.951Z,2.53
2022-09-20T03:27:43.886Z,3.75
2022-09-20T03:30:28.690Z,3.22
2022-09-20T03:33:04.814Z,3.25
2022-09-20T03:35:46.812Z,3.25
2022-09-20T03:38:34.281Z,1.70
2022-09-20T03:41:30.263Z,2.03
2022-09-20T03:44:10.726Z,2.40
2022-09-20T03:46:45.219Z,2.58
2022-09-20T03:49:51.024Z,2.67
2022-09-20T03:52:36.887Z,2.58
2022-09-20T03:55:33.693Z,2.75
2022-09-20T03:58:16.845Z,2.63
2022-09-20T04:00:59.779Z,3.00
2022-09-20T04:03:37.272Z,3.53
2022-09-20T04:06:34.321Z,3.20
2022-09-20T04:09:35.848Z,2.55
2022-09-20T04:12:11.701Z,2.22
2022-09-20T04:14:48.250Z,2.42
2022-09-20T04:17:32.144Z,5.22
2022-09-20T04:20:06.737Z,2.20
2022-09-20T04:22:34.869Z,2.13
2022-09-20T04:25:12.933Z,2.70
2022-09-20T04:27:47.790Z,2.03
2022-09-20T04:30:19.335Z,1.55
2022-09-20T04:32:52.917Z,1.80
2022-09-20T04:35:51.650Z,3.08
2022-09-20T04:38:21.130Z,1.63
2022-09-20T04:41:14.810Z,2.00
2022-09-20T04:44:13.091Z,1.73
2022-09-20T04:47:22.768Z,1.85
2022-09-20T04:50:16.131Z,1.25
2022-09-20T04:53:14.711Z,1.73
2022-09-20T04:55:57.784Z,1.40
2022-09-20T04:58:48.840Z,1.90
2022-09-20T05:01:49.279Z,2.03
2022-09-20T05:04:55.056Z,1.70
2022-09-20T05:07:49.330Z,1.60
2022-09-20T05:10:35.485Z,1.80
2022-09-20T05:13:22.023Z,1.70
2022-09-20T05:15:58.276Z,1.98
2022-09-20T05:19:16.556Z,1.83
2022-09-20T05:22:27.011Z,1.90
2022-09-20T05:25:23.093Z,1.35
2022-09-20T05:27:56.644Z,1.55
2022-09-20T05:30:34.956Z,1.70
2022-09-20T05:33:13.030Z,1.70
2022-09-20T05:35:48.525Z,2.50
2022-09-20T05:38:22.553Z,1.85
2022-09-20T05:41:10.235Z,1.80
2022-09-20T05:43:49.209Z,1.77
2022-09-20T05:46:23.967Z,2.17
2022-09-20T05:48:57.841Z,1.80
2022-09-20T05:51:43.005Z,1.65
2022-09-20T05:54:27.322Z,1.50
2022-09-20T05:57:05.791Z,1.85
2022-09-20T05:59:44.917Z,1.90
2022-09-20T06:02:32.338Z,2.15
2022-09-20T06:05:04.799Z,2.28
2022-09-20T06:07:56.205Z,1.95
2022-09-20T06:10:53.942Z,1.45
2022-09-20T06:13:42.762Z,1.90
2022-09-20T06:16:16.678Z,1.60
2022-09-20T06:18:50.881Z,1.67
2022-09-20T06:21:32.051Z,1.50
2022-09-20T06:24:02.990Z,1.67
2022-09-20T06:26:37.482Z,1.50
2022-09-20T06:29:10.870Z,1.40
2022-09-20T06:31:39.086Z,1.65
2022-09-20T06:34:11.250Z,1.85
2022-09-20T06:37:03.701Z,1.27
2022-09-20T06:39:59.996Z,1.27
2022-09-20T06:42:28.707Z,1.30
2022-09-20T06:44:57.557Z,1.20
2022-09-20T06:47:27.097Z,1.17
2022-09-20T06:49:57.285Z,1.20
2022-09-20T06:52:26.973Z,1.33
2022-09-20T06:54:57.083Z,1.15
2022-09-20T06:57:29.598Z,1.38
2022-09-20T06:59:57.255Z,1.70
2022-09-20T07:02:25.080Z,1.52
2022-09-20T07:04:57.428Z,1.73
2022-09-20T07:07:25.464Z,1.30
2022-09-20T07:09:53.072Z,2.25
2022-09-20T07:12:22.165Z,1.80
2022-09-20T07:14:50.528Z,1.38
2022-09-20T07:17:18.226Z,1.30
2022-09-20T07:19:45.956Z,1.45
2022-09-20T07:22:14.447Z,1.60
2022-09-20T07:24:42.201Z,1.85
2022-09-20T07:27:11.770Z,2.33
2022-09-20T07:29:41.339Z,1.60
2022-09-20T07:32:09.231Z,1.63
2022-09-20T07:34:36.892Z,1.55
2022-09-20T07:37:04.769Z,1.10
2022-09-20T07:39:32.398Z,1.50
2022-09-20T07:42:01.299Z,1.85
2022-09-20T07:44:29.000Z,1.40
2022-09-20T07:47:00.363Z,1.38
2022-09-20T07:49:30.688Z,1.67
2022-09-20T07:51:59.388Z,1.85
2022-09-20T07:54:28.178Z,1.10
2022-09-20T07:56:55.933Z,1.92
2022-09-20T07:59:24.250Z,1.27
2022-09-20T08:01:52.028Z,1.75
2022-09-20T08:04:21.041Z,1.02
2022-09-20T08:06:48.672Z,1.33
2022-09-20T08:09:16.337Z,1.45
2022-09-20T08:11:44.573Z,1.20
2022-09-20T08:14:15.068Z,1.35
2022-09-20T08:16:44.494Z,1.33
2022-09-20T08:19:17.496Z,1.30
2022-09-20T08:21:46.755Z,1.70
2022-09-20T08:24:16.069Z,1.65
2022-09-20T08:26:44.447Z,1.27
2022-09-20T08:29:13.373Z,1.48
2022-09-20T08:31:42.584Z,1.48
2022-09-20T08:34:12.166Z,0.88
2022-09-20T08:36:42.059Z,1.75
2022-09-20T08:42:08.992Z,2.78
2022-09-20T08:44:46.829Z,1.20
2022-09-20T08:47:20.312Z,1.60
2022-09-20T08:49:48.615Z,1.25
2022-09-20T08:52:20.265Z,1.88
2022-09-20T08:54:49.442Z,1.27
2022-09-20T08:57:19.455Z,1.02
2022-09-20T08:59:48.265Z,1.38
2022-09-20T09:02:18.162Z,1.13
2022-09-20T09:04:48.289Z,1.20
2022-09-20T09:07:21.748Z,1.65
2022-09-20T09:09:53.552Z,1.42
2022-09-20T09:12:24.701Z,1.02
2022-09-20T09:14:55.249Z,1.00
2022-09-20T09:17:27.288Z,1.45
2022-09-20T09:19:57.379Z,1.35
2022-09-20T09:22:29.573Z,1.20
2022-09-20T09:25:23.348Z,0.88
2022-09-20T09:27:53.449Z,1.60
2022-09-20T09:30:23.296Z,1.10
2022-09-20T09:32:51.238Z,1.25
2022-09-20T09:35:29.769Z,1.75
2022-09-20T09:37:59.830Z,1.30
2022-09-20T09:40:30.201Z,0.90
2022-09-20T09:42:59.632Z,1.20
2022-09-20T09:45:33.125Z,1.23
2022-09-20T09:48:02.876Z,1.70
2022-09-20T09:50:33.481Z,1.27
2022-09-20T09:53:04.195Z,1.50
2022-09-20T09:55:52.600Z,1.77
2022-09-20T09:58:31.581Z,1.25
2022-09-20T10:01:04.331Z,1.08
2022-09-20T10:03:50.499Z,1.23
2022-09-20T10:06:24.805Z,1.25
2022-09-20T10:09:17.848Z,1.00
2022-09-20T10:11:58.773Z,1.50
2022-09-20T10:14:36.915Z,1.20
2022-09-20T10:17:18.954Z,1.17
2022-09-20T10:20:01.880Z,1.30
2022-09-20T10:22:40.528Z,1.40
2022-09-20T10:25:21.127Z,0.85
2022-09-20T10:28:02.037Z,1.35
2022-09-20T10:30:36.745Z,0.82
2022-09-20T10:33:17.089Z,1.10
2022-09-20T10:36:01.062Z,1.00
2022-09-20T10:38:33.465Z,1.75
2022-09-20T10:41:30.773Z,1.13
2022-09-20T10:44:09.895Z,0.95
2022-09-20T10:46:48.975Z,1.02
2022-09-20T10:49:24.867Z,0.80
2022-09-20T10:52:05.674Z,1.08
2022-09-20T10:54:43.486Z,0.90
2022-09-20T10:57:30.935Z,1.00
2022-09-20T11:00:07.414Z,1.10
2022-09-20T11:02:52.067Z,0.95
2022-09-20T11:05:30.609Z,0.80
2022-09-20T11:08:05.948Z,0.90
2022-09-20T11:10:39.133Z,0.63
2022-09-20T11:13:14.564Z,0.98
2022-09-20T11:15:49.069Z,0.75
2022-09-20T11:18:23.226Z,0.93
2022-09-20T11:20:58.764Z,0.80
2022-09-20T11:23:41.535Z,1.10
2022-09-20T11:26:15.710Z,1.45
2022-09-20T11:28:48.978Z,0.80
2022-09-20T11:31:23.666Z,0.93
2022-09-20T11:33:56.429Z,1.00
2022-09-20T11:36:28.060Z,0.80
2022-09-20T11:39:00.023Z,1.63
2022-09-20T11:41:28.888Z,1.10
2022-09-20T11:44:00.460Z,0.98
2022-09-20T11:46:32.378Z,1.08
2022-09-20T11:49:03.852Z,0.70
2022-09-20T11:51:53.448Z,1.35
2022-09-20T11:54:49.458Z,0.80
2022-09-20T11:57:17.543Z,0.73
2022-09-20T11:59:52.768Z,0.80
2022-09-20T12:02:28.315Z,1.10
2022-09-20T12:04:56.652Z,1.60
2022-09-20T12:07:27.250Z,0.80
2022-09-20T12:09:58.151Z,0.95
2022-09-20T12:12:35.833Z,1.40
2022-09-20T12:15:07.224Z,1.83
2022-09-20T12:18:13.392Z,0.88
2022-09-20T12:21:02.958Z,1.05
2022-09-20T12:24:11.150Z,0.95
2022-09-20T12:26:45.157Z,1.40
2022-09-20T12:29:55.115Z,0.90
2022-09-20T12:32:56.182Z,1.10
2022-09-20T12:35:54.385Z,0.85
2022-09-20T12:38:48.151Z,1.88
2022-09-20T12:41:27.586Z,1.27
2022-09-20T12:44:06.567Z,1.05
2022-09-20T12:46:39.465Z,0.88
2022-09-20T12:49:50.102Z,0.70
2022-09-20T12:52:56.899Z,1.05
2022-09-20T12:55:39.915Z,0.73
2022-09-20T12:58:20.061Z,0.73
2022-09-20T13:00:50.736Z,0.95
2022-09-20T13:03:28.515Z,0.93
2022-09-20T13:06:27.432Z,1.25
2022-09-20T13:09:04.178Z,0.63
2022-09-20T13:11:40.267Z,0.90
2022-09-20T13:14:13.678Z,1.17
2022-09-20T13:16:50.762Z,1.00
2022-09-20T13:19:20.660Z,0.88
2022-09-20T13:21:55.163Z,0.70
2022-09-20T13:24:25.602Z,1.52
2022-09-20T13:26:57.084Z,0.70
2022-09-20T13:29:30.289Z,0.82
2022-09-20T13:31:58.433Z,1.00
2022-09-20T13:34:26.789Z,0.73
2022-09-20T13:36:58.226Z,1.00
2022-09-20T13:39:37.271Z,1.77
2022-09-20T13:42:16.274Z,0.90
2022-09-20T13:44:44.676Z,0.77
2022-09-20T13:47:23.588Z,0.70
2022-09-20T13:49:51.527Z,0.60
2022-09-20T13:52:27.421Z,1.00
2022-09-20T13:54:56.101Z,0.65
2022-09-20T13:57:28.597Z,0.70
2022-09-20T13:59:57.870Z,1.10
2022-09-20T14:02:28.941Z,1.10
2022-09-20T14:04:57.997Z,0.63
2022-09-20T14:07:27.941Z,0.90
2022-09-20T14:09:56.627Z,0.75
2022-09-20T14:12:26.860Z,1.45
2022-09-20T14:14:55.310Z,0.95
2022-09-20T14:17:25.091Z,0.52
2022-09-20T14:19:55.405Z,0.55
2022-09-20T14:22:26.286Z,0.90
2022-09-20T14:24:59.943Z,0.65
2022-09-20T14:27:31.045Z,0.90
2022-09-20T14:29:59.168Z,0.70
2022-09-20T14:32:40.025Z,0.70
2022-09-20T14:35:16.014Z,0.70
2022-09-20T14:37:46.213Z,0.60
2022-09-20T14:40:26.569Z,0.82
2022-09-20T14:42:58.739Z,0.68
2022-09-20T14:45:30.802Z,0.70
2022-09-20T14:48:06.738Z,0.77
2022-09-20T14:50:39.972Z,0.68
2022-09-20T14:53:27.620Z,0.40
2022-09-20T14:56:01.167Z,0.68
2022-09-20T14:58:31.154Z,0.60
2022-09-20T15:01:03.463Z,0.57
2022-09-20T15:03:33.944Z,0.77
2022-09-20T15:06:01.693Z,1.00
2022-09-20T15:08:29.312Z,1.02
2022-09-20T15:10:56.955Z,0.80
2022-09-20T15:13:24.581Z,1.70
2022-09-20T15:15:54.832Z,0.90
2022-09-20T15:18:25.238Z,1.00
2022-09-20T15:20:53.431Z,0.60
2022-09-20T15:23:22.258Z,1.13
2022-09-20T15:25:51.848Z,0.68
2022-09-20T15:28:20.447Z,0.70
2022-09-20T15:30:50.013Z,3.38
2022-09-20T15:33:20.281Z,1.58
2022-09-20T15:35:48.886Z,2.70
2022-09-20T15:38:18.511Z,1.58
2022-09-20T15:40:47.933Z,1.27
2022-09-20T15:43:17.266Z,1.10
2022-09-20T15:45:50.415Z,0.98
2022-09-20T15:48:21.784Z,0.65
2022-09-20T15:51:02.133Z,0.80
2022-09-20T15:53:31.975Z,1.00
2022-09-20T15:56:01.736Z,1.15
2022-09-20T15:58:34.897Z,0.80
2022-09-20T16:01:05.772Z,0.88
2022-09-20T16:03:35.626Z,0.88
2022-09-20T16:06:05.820Z,0.88
2022-09-20T16:08:34.729Z,0.98
2022-09-20T16:11:03.615Z,1.00
2022-09-20T16:13:31.204Z,1.20
2022-09-20T16:16:00.603Z,1.10
2022-09-20T16:18:46.839Z,0.80
2022-09-20T16:21:18.048Z,0.70
2022-09-20T16:23:49.499Z,0.70
2022-09-20T16:26:17.712Z,0.98
2022-09-20T16:28:47.715Z,1.00
2022-09-20T16:31:34.714Z,0.75
2022-09-20T16:34:03.456Z,0.70
2022-09-20T16:36:32.985Z,0.80
2022-09-20T16:39:01.163Z,0.80
2022-09-20T16:41:30.087Z,0.80
2022-09-20T16:43:57.768Z,0.95
2022-09-20T16:46:27.509Z,0.70
2022-09-20T16:48:56.527Z,0.52
2022-09-20T16:51:26.031Z,0.93
2022-09-20T16:53:55.683Z,0.50
2022-09-20T16:56:25.677Z,1.60
2022-09-20T16:58:54.602Z,1.40
2022-09-20T17:01:23.576Z,1.42
2022-09-20T17:03:51.737Z,0.98
2022-09-20T17:06:22.364Z,1.77
2022-09-20T17:08:58.136Z,0.85
2022-09-20T17:11:30.358Z,1.45
2022-09-20T17:13:58.798Z,1.88
2022-09-20T17:16:29.501Z,3.08
2022-09-20T17:18:58.862Z,1.67
2022-09-20T17:21:28.096Z,1.30
2022-09-20T17:23:57.664Z,1.35
2022-09-20T17:26:31.401Z,1.23
2022-09-20T17:28:58.980Z,1.55
2022-09-20T17:31:30.243Z,1.70
2022-09-20T17:34:00.148Z,1.30
2022-09-20T17:36:29.855Z,1.40
2022-09-20T17:39:03.879Z,0.85
2022-09-20T17:41:35.228Z,1.00
2022-09-20T17:44:07.949Z,1.63
2022-09-20T17:46:37.168Z,1.10
2022-09-20T17:49:06.849Z,1.50
2022-09-20T17:51:36.629Z,1.15
2022-09-20T17:54:04.940Z,1.23
2022-09-20T17:56:35.447Z,1.27
2022-09-20T17:59:05.391Z,1.75
2022-09-20T18:01:37.628Z,1.40
2022-09-20T18:04:06.709Z,1.30
2022-09-20T18:06:36.347Z,1.40
2022-09-20T18:09:06.386Z,1.60
2022-09-20T18:11:37.443Z,1.30
2022-09-20T18:14:06.846Z,1.52
2022-09-20T18:16:35.285Z,1.20
2022-09-20T18:19:03.327Z,1.83
2022-09-20T18:21:33.392Z,1.20
2022-09-20T18:24:01.006Z,1.20
2022-09-20T18:26:32.333Z,1.17
2022-09-20T18:29:03.128Z,1.58
2022-09-20T18:31:33.324Z,1.10
2022-09-20T18:34:01.809Z,1.35
2022-09-20T18:36:30.997Z,1.20
2022-09-20T18:38:59.618Z,1.27
2022-09-20T18:41:30.443Z,1.50
2022-09-20T18:43:59.031Z,1.60
2022-09-20T18:46:30.857Z,1.60
2022-09-20T18:49:01.568Z,1.30
2022-09-20T18:51:30.077Z,1.45
2022-09-20T18:53:58.591Z,2.03
2022-09-20T18:56:28.146Z,1.48
2022-09-20T18:58:57.839Z,2.20
2022-09-20T19:01:38.578Z,1.80
2022-09-20T19:04:18.842Z,1.98
2022-09-20T19:06:55.528Z,2.30
2022-09-20T19:09:29.722Z,2.03
2022-09-20T19:12:06.037Z,1.85
2022-09-20T19:14:52.748Z,2.17
2022-09-20T19:17:31.721Z,3.15
2022-09-20T19:20:06.927Z,1.83
2022-09-20T19:22:43.529Z,2.58
2022-09-20T19:25:21.604Z,1.40
2022-09-20T19:27:50.254Z,1.40
2022-09-20T19:30:22.200Z,1.85
2022-09-20T19:32:52.015Z,1.85
2022-09-20T19:35:23.405Z,2.15
2022-09-20T19:38:03.317Z,1.98
2022-09-20T19:40:40.441Z,2.20
2022-09-20T19:43:32.015Z,3.40
2022-09-20T19:46:07.171Z,2.33
2022-09-20T19:48:39.721Z,2.00
2022-09-20T19:51:11.761Z,2.38
2022-09-20T19:53:40.343Z,2.35
2022-09-20T19:56:22.139Z,1.95
2022-09-20T19:58:53.021Z,2.13
2022-09-20T20:01:22.148Z,2.47
2022-09-20T20:03:51.765Z,4.03
2022-09-20T20:06:27.603Z,2.42
2022-09-20T20:09:02.644Z,2.90
2022-09-20T20:11:40.082Z,2.58
2022-09-20T20:14:22.517Z,2.53
2022-09-20T20:17:01.402Z,2.25
2022-09-20T20:20:03.897Z,2.50
2022-09-20T20:22:50.116Z,3.15
2022-09-20T20:25:29.302Z,3.85
2022-09-20T20:27:56.929Z,3.30
2022-09-20T20:30:24.624Z,3.33
2022-09-20T20:32:57.915Z,4.43
2022-09-20T20:35:27.166Z,3.55
2022-09-20T20:37:55.012Z,3.83
2022-09-20T20:40:22.810Z,3.97
2022-09-20T20:42:56.149Z,3.58
2022-09-20T20:45:24.074Z,2.83
2022-09-20T20:47:57.245Z,3.15
2022-09-20T20:50:25.181Z,3.53
2022-09-20T20:52:55.749Z,3.22
2022-09-20T20:55:23.968Z,3.65
2022-09-20T20:57:58.147Z,3.40
2022-09-20T21:00:26.429Z,2.55
2022-09-20T21:02:58.914Z,3.30
2022-09-20T21:05:26.820Z,3.05
2022-09-20T21:07:57.898Z,2.58
2022-09-20T21:10:25.937Z,2.42
2022-09-20T21:12:55.683Z,3.05
2022-09-20T21:15:23.303Z,2.67
2022-09-20T21:17:52.426Z,2.58
2022-09-20T21:20:21.356Z,2.75
2022-09-20T21:22:49.083Z,2.72
2022-09-20T21:25:18.090Z,3.30
2022-09-20T21:27:45.852Z,2.33
2022-09-20T21:30:14.652Z,3.30
2022-09-20T21:32:42.412Z,2.40
2022-09-20T21:35:10.287Z,2.85
2022-09-20T21:37:37.933Z,4.07
2022-09-20T21:40:07.318Z,2.85
2022-09-20T21:42:36.445Z,2.53
2022-09-20T21:45:08.476Z,2.90
2022-09-20T21:47:36.068Z,2.72
2022-09-20T21:50:03.688Z,2.58
2022-09-20T21:52:31.474Z,2.50
2022-09-20T21:54:59.169Z,3.35
2022-09-20T21:57:27.135Z,2.70
2022-09-20T21:59:56.121Z,3.08
2022-09-20T22:02:24.065Z,3.15
2022-09-20T22:04:52.067Z,3.00
2022-09-20T22:07:19.926Z,3.72
2022-09-20T22:09:47.496Z,2.88
2022-09-20T22:12:15.166Z,3.85
2022-09-20T22:14:44.429Z,3.35
2022-09-20T22:17:13.519Z,2.92
2022-09-20T22:19:41.105Z,3.28
2022-09-20T22:22:08.869Z,3.65
2022-09-20T22:24:36.450Z,3.08
2022-09-20T22:27:04.265Z,3.17
2022-09-20T22:29:32.015Z,2.95
2022-09-20T22:31:59.586Z,2.90
2022-09-20T22:34:28.650Z,3.42
2022-09-20T22:36:56.228Z,2.88
2022-09-20T22:39:23.787Z,3.00
2022-09-20T22:41:52.448Z,2.78
2022-09-20T22:44:20.102Z,2.63
2022-09-20T22:46:47.817Z,2.42
2022-09-20T22:49:15.610Z,3.03
2022-09-20T22:51:44.660Z,3.10
2022-09-20T22:54:13.263Z,2.45
2022-09-20T22:56:42.561Z,2.70
2022-09-20T22:59:12.559Z,2.38
2022-09-20T23:01:42.890Z,2.60
2022-09-20T23:04:12.830Z,2.78
2022-09-20T23:06:41.604Z,2.55
2022-09-20T23:09:13.073Z,2.33
2022-09-20T23:11:42.714Z,2.13
2022-09-20T23:14:12.401Z,2.88
2022-09-20T23:16:41.026Z,2.88
2022-09-20T23:19:09.841Z,3.40
2022-09-20T23:21:38.749Z,3.05
2022-09-20T23:24:08.230Z,2.30
2022-09-20T23:26:38.879Z,2.40
2022-09-20T23:29:08.667Z,2.80
2022-09-20T23:31:37.817Z,2.80
2022-09-20T23:34:08.008Z,2.97
2022-09-20T23:36:38.231Z,2.67
2022-09-20T23:39:10.069Z,2.55
2022-09-20T23:41:39.666Z,2.75
2022-09-20T23:44:09.663Z,2.85
2022-09-20T23:46:38.272Z,2.85
2022-09-20T23:49:06.497Z,2.00
2022-09-20T23:51:35.518Z,2.92
2022-09-20T23:54:03.277Z,2.63
2022-09-20T23:56:31.423Z,2.42
2022-09-20T23:59:00.400Z,2.90
